• Join FlightAware (Why Join?)
  • Login
  • US Flag 
01:07AM EDT


 

Airport Tracker/Info


-or-


 

Live Flight TrackerFlight Track Log ✈ MWT55 ✈ 19-Apr-2013 ✈ KBJC - KTVL

Flight Track Log - Related Links

Times and Time Zones

All times are in EDT time to prevent confusion due to time zone crossing. See the MWT55 flight status page for this flight to view local times or setup timezone preferences in your user account.

Time Position Orientation Groundspeed Altitude Reporting Facility
EDT Latitude Longitude Course Direction KTS MPH feet Rate Location/Type
06:55PM 39.9333 -105.1333 349° North 183 211 6,800  Level Denver TRACON
06:56PM 40.0000 -105.1500 349° North 267 307 10,200 3,600 Climbing Denver TRACON
06:56PM 40.0264 -105.1500 360° North 264 304 12,300 4,920 Climbing Denver Center
06:57PM 40.0475 -105.2417 287° West 252 290 17,900 4,740 Climbing Denver Center
06:58PM 40.0433 -105.3286 266° West 239 275 22,100 2,700 Climbing Denver Center
06:59PM 40.0397 -105.4381 268° West 293 337 23,500 1,980 Climbing Denver Center
07:00PM 40.0311 -105.5572 265° West 325 374 26,300 2,700 Climbing Denver Center
07:01PM 40.0278 -105.6819 268° West 340 391 29,100 2,460 Climbing Denver Center
07:02PM 40.0244 -105.8106 268° West 348 400 31,500 2,160 Climbing Denver Center
07:03PM 40.0192 -105.9394 267° West 352 405 33,600 1,740 Climbing Denver Center
07:04PM 40.0156 -106.0681 268° West 354 407 35,100 1,380 Climbing Denver Center
07:05PM 40.0094 -106.2253 267° West 367 422 36,500 780 Climbing Denver Center
07:06PM 40.0050 -106.3644 268° West 379 436 36,800 480 Climbing Denver Center
07:07PM 40.0036 -106.5083 269° West 397 457 37,500 780 Climbing Denver Center
07:09PM 40.0131 -106.6547 275° West 391 450 38,500 720 Climbing Denver Center
07:10PM 40.0192 -106.7897 273° West 390 449 39,100 660 Climbing Denver Center
07:11PM 40.0267 -106.9494 274° West 395 455 39,900 660 Climbing Denver Center
07:12PM 40.0331 -107.0897 273° West 402 463 40,500 600 Climbing Denver Center
07:13PM 40.0400 -107.2486 273° West 395 455 41,200 600 Climbing Denver Center
07:14PM 40.0450 -107.3850 273° West 394 453 41,800 540 Climbing Denver Center
07:15PM 40.0531 -107.5447 274° West 394 453 42,400 480 Climbing Denver Center
07:16PM 40.0586 -107.6819 273° West 396 456 42,800 240 Climbing Denver Center
07:17PM 40.0644 -107.8419 273° West 397 457 43,000 60 Climbing Denver Center
07:18PM 40.0689 -107.9833 272° West 404 465 43,000  Level Denver Center
07:19PM 40.0683 -108.1525 270° West 417 480 43,000 120 Level Denver Center
07:20PM 40.0686 -108.2950 270° West 414 476 43,300 240 Climbing Denver Center
07:21PM 40.0694 -108.4592 270° West 408 470 43,600 300 Climbing Denver Center
07:22PM 40.0689 -108.6003 270° West 408 470 44,000 300 Climbing Denver Center
07:23PM 40.0686 -108.7644 270° West 409 471 44,300 240 Climbing Denver Center
07:24PM 40.0686 -108.9039 270° West 406 467 44,500 180 Climbing Denver Center
07:25PM 40.0675 -109.0208 269° West 406 467 44,700 180 Climbing Salt Lake Center
07:26PM 40.0664 -109.1594 269° West 403 464 44,900 180 Climbing Salt Lake Center
07:26PM 40.0658 -109.2061 269° West 403 464 45,000 60 Climbing Denver Center
07:27PM 40.0658 -109.3686 270° West 401 461 45,000  Level Denver Center
07:28PM 40.0644 -109.5086 269° West 403 464 45,000  Level Denver Center
07:29PM 40.0633 -109.6267 269° West 406 467 45,000  Level Salt Lake Center
07:30PM 40.0622 -109.7664 269° West 404 465 45,000  Level Salt Lake Center
07:31PM 40.0603 -109.9314 269° West 407 468 45,000  Level Salt Lake Center
07:32PM 40.0592 -110.0717 269° West 406 467 45,000  Level Salt Lake Center
07:33PM 40.0561 -110.2367 269° West 407 468 45,000  Level Salt Lake Center
07:34PM 40.0542 -110.3775 269° West 406 467 45,000  Level Salt Lake Center
07:35PM 40.0514 -110.5186 269° West 407 468 45,000  Level Salt Lake Center
07:36PM 40.0486 -110.6825 269° West 405 466 45,000  Level Salt Lake Center
07:37PM 40.0461 -110.8225 269° West 404 465 45,000  Level Salt Lake Center
07:38PM 40.0431 -110.9856 269° West 402 463 45,000  Level Salt Lake Center
07:39PM 40.0414 -111.1236 269° West 400 460 45,000  Level Salt Lake Center
07:40PM 40.0369 -111.2881 268° West 404 465 45,000  Level Salt Lake Center
07:41PM 40.0331 -111.4286 268° West 405 466 45,000  Level Salt Lake Center
07:42PM 40.0281 -111.5681 267° West 403 464 45,000  Level Salt Lake Center
07:43PM 40.0250 -111.7172 269° West 401 461 45,000  Level Salt Lake Center
07:44PM 40.0211 -111.8642 268° West 405 466 45,100 120 Climbing Salt Lake Center
07:45PM 40.0158 -112.0378 268° West 399 459 45,300 120 Climbing Salt Lake Center
07:46PM 40.0114 -112.1811 268° West 396 456 45,400 120 Climbing Salt Lake Center
07:47PM 40.0067 -112.3244 268° West 396 456 45,600 120 Climbing Salt Lake Center
07:48PM 40.0022 -112.4678 268° West 396 456 45,700 120 Climbing Salt Lake Center
07:49PM 39.9967 -112.6083 267° West 392 451 45,900 120 Climbing Salt Lake Center
07:50PM 39.9928 -112.7483 268° West 387 445 46,000 120 Climbing Salt Lake Center
07:52PM 39.9864 -112.8886 267° West 387 445 46,200 120 Climbing Salt Lake Center
07:53PM 39.9817 -113.0272 267° West 384 442 46,300 120 Climbing Salt Lake Center
07:54PM 39.9742 -113.1928 267° West 383 441 46,500 120 Climbing Salt Lake Center
07:55PM 39.9689 -113.3314 267° West 384 442 46,600 120 Climbing Salt Lake Center
07:56PM 39.9625 -113.4683 267° West 380 437 46,800 120 Climbing Salt Lake Center
07:57PM 39.9569 -113.6067 267° West 383 441 46,900 60 Climbing Salt Lake Center
07:58PM 39.9522 -113.7431 267° West 379 436 47,000  Climbing Salt Lake Center
07:59PM 39.9453 -113.8808 266° West 381 438 47,000  Level Salt Lake Center
08:00PM 39.9375 -114.0475 267° West 386 444 47,000  Level Salt Lake Center
08:01PM 39.9303 -114.1878 266° West 388 447 47,000  Level Salt Lake Center
08:02PM 39.9236 -114.3286 267° West 390 449 47,000  Level Salt Lake Center
08:03PM 39.9164 -114.4669 266° West 386 444 47,000  Level Salt Lake Center
08:04PM 39.9092 -114.6058 266° West 386 444 47,000  Level Salt Lake Center
08:05PM 39.8997 -114.7647 266° West 390 449 47,000  Level Salt Lake Center
08:06PM 39.8928 -114.8989 266° West 390 449 47,000  Level Salt Lake Center
08:07PM 39.8856 -115.0328 266° West 388 447 47,000  Level Salt Lake Center
08:08PM 39.8756 -115.1911 265° West 391 450 47,000  Level Salt Lake Center
08:09PM 39.8689 -115.3253 266° West 389 448 47,000  Level Salt Lake Center
08:10PM 39.8575 -115.4856 265° West 397 457 47,000  Level Salt Lake Center
08:11PM 39.8492 -115.6194 265° West 391 450 47,000  Level Salt Lake Center
08:12PM 39.8383 -115.7800 265° West 395 455 47,000  Level Salt Lake Center
08:13PM 39.8306 -115.9142 266° West 390 449 47,000  Level Salt Lake Center
08:14PM 39.8222 -116.0506 265° West 393 452 47,000  Level Salt Lake Center
08:15PM 39.8117 -116.2061 265° West 389 448 47,000  Level Salt Lake Center
08:16PM 39.8033 -116.3408 265° West 389 448 47,000  Level Salt Lake Center
08:17PM 39.7922 -116.4992 265° West 393 452 47,000  Level Salt Lake Center
08:18PM 39.7828 -116.6336 265° West 390 449 47,000  Level Salt Lake Center
08:19PM 39.7731 -116.7678 265° West 389 448 47,000  Level Salt Lake Center
08:20PM 39.7614 -116.9250 265° West 389 448 47,000  Level Salt Lake Center
08:21PM 39.7522 -117.0614 265° West 393 452 47,000  Level Salt Lake Center
08:22PM 39.7400 -117.2186 264° West 390 449 47,000  Level Salt Lake Center
08:23PM 39.7300 -117.3528 265° West 390 449 47,000  Level Salt Lake Center
08:24PM 39.7186 -117.5031 264° West 391 450 47,000  Level Salt Lake Center
08:25PM 39.7081 -117.6444 265° West 395 455 47,000  Level Salt Lake Center
08:27PM 39.6933 -117.8167 264° West 398 458 47,000  Level Oakland Center
08:28PM 39.6825 -117.9589 264° West 398 458 47,000  Level Oakland Center
08:29PM 39.6708 -118.1011 264° West 398 458 47,000  Level Oakland Center
08:30PM 39.6586 -118.2447 264° West 401 461 47,000 -240 Level Oakland Center
08:31PM 39.6464 -118.3875 264° West 401 461 46,600 -1,140 Descending Oakland Center
08:32PM 39.6311 -118.5531 263° West 389 448 44,800 -1,680 Descending Oakland Center
08:33PM 39.6203 -118.6847 264° West 375 432 43,200 -1,680 Descending Oakland Center
08:34PM 39.6083 -118.8164 263° West 373 429 41,400 -2,340 Descending Oakland Center
08:35PM 39.5964 -118.9508 263° West 379 436 38,500 -2,700 Descending Oakland Center
08:36PM 39.5850 -119.0797 263° West 362 417 35,900 -2,640 Descending Oakland Center
08:37PM 39.5736 -119.2006 263° West 341 392 33,200 -2,640 Descending Oakland Center
08:38PM 39.5608 -119.3278 263° West 355 409 30,500 -3,240 Descending Oakland Center
08:39PM 39.5458 -119.4964 263° West 395 455 26,700 -3,480 Descending Oakland Center
08:40PM 39.5150 -119.6356 254° West 420 483 23,400 -3,540 Descending Oakland Center
08:40PM 39.4833 -119.6667 217° Southwest 447 514 22,000 -2,700 Descending Northern Cal TRACON
08:41PM 39.3833 -119.7333 207° Southwest 416 479 19,900 -2,640 Descending Northern Cal TRACON
08:42PM 39.2833 -119.7833 201° Southwest 360 414 16,800 -3,000 Descending Northern Cal TRACON
08:43PM 39.2275 -119.8331 215° Southwest 372 428 14,700 -2,760 Descending Oakland Center